Terminal Aerodrome Forecast
Issued by NWS

Home | Current Version | Previous Version | Text Only | Print | Product List | Glossary On
Versions: 1 2 3 4 5 6 7 8 9 10 11 12 13 14 15 16 17 18 19 20 21 22
000
FTUS42 KTAE 021743
TAFABY
TAF
KABY 021743Z 0218/0318 08007KT P6SM BKN025
     FM022000 04010KT P6SM BKN040
     FM030000 04004KT P6SM FEW050
     FM030800 00000KT 5SM BR SCT005
     FM031400 36004KT P6SM SCT025=

USA.gov is the U.S. government's official web portal to all federal, state and local government web resources and services.